createdAt,value
2018-11-12T00:01:34.149Z,88.54
2018-11-12T00:04:02.725Z,88.35
2018-11-12T00:06:31.285Z,88.12
2018-11-12T00:08:59.869Z,88.41
2018-11-12T00:11:28.455Z,87.99
2018-11-12T00:13:56.962Z,87.83
2018-11-12T00:16:32.230Z,87.93
2018-11-12T00:19:00.913Z,87.56
2018-11-12T00:21:30.001Z,88.65
2018-11-12T00:23:58.765Z,88.06
2018-11-12T00:26:27.624Z,88.47
2018-11-12T00:28:56.206Z,88.36
2018-11-12T00:31:25.193Z,87.86
2018-11-12T00:33:53.749Z,88.40
2018-11-12T00:36:22.482Z,87.64
2018-11-12T00:38:51.213Z,88.32
2018-11-12T00:41:19.992Z,88.00
2018-11-12T00:43:48.725Z,88.16
2018-11-12T00:46:17.245Z,88.16
2018-11-12T00:48:45.840Z,87.28
2018-11-12T00:51:18.246Z,87.47
2018-11-12T00:53:46.822Z,88.17
2018-11-12T00:56:15.334Z,87.75
2018-11-12T00:58:43.873Z,87.87
2018-11-12T01:01:12.449Z,88.21
2018-11-12T01:03:40.969Z,87.74
2018-11-12T01:06:09.822Z,87.43
2018-11-12T01:08:38.408Z,87.09
2018-11-12T01:11:07.067Z,86.83
2018-11-12T01:13:35.613Z,87.83
2018-11-12T01:16:04.229Z,88.44
2018-11-12T01:18:32.757Z,89.62
2018-11-12T01:21:01.289Z,89.67
2018-11-12T01:23:30.847Z,90.53
2018-11-12T01:25:59.321Z,89.47
2018-11-12T01:28:27.898Z,90.10
2018-11-12T01:31:01.759Z,89.57
2018-11-12T01:33:30.308Z,89.15
2018-11-12T01:35:58.831Z,88.70
2018-11-12T01:38:27.402Z,88.45
2018-11-12T01:40:55.920Z,87.70
2018-11-12T01:43:24.484Z,87.44
2018-11-12T01:45:53.038Z,87.15
2018-11-12T01:48:21.590Z,87.46
2018-11-12T01:50:50.148Z,87.04
2018-11-12T01:53:18.669Z,88.86
2018-11-12T01:55:47.213Z,88.80
2018-11-12T01:58:15.969Z,89.67
2018-11-12T02:00:44.531Z,90.55
2018-11-12T02:03:13.065Z,90.06
2018-11-12T02:05:41.630Z,89.72
2018-11-12T02:08:10.177Z,88.30
2018-11-12T02:10:38.945Z,88.32
2018-11-12T02:13:07.498Z,88.43
2018-11-12T02:15:36.072Z,88.23
2018-11-12T02:18:04.817Z,88.57
2018-11-12T02:20:33.510Z,88.81
2018-11-12T02:23:02.035Z,88.74
2018-11-12T02:25:30.601Z,88.35
2018-11-12T02:27:59.112Z,87.83
2018-11-12T02:30:32.847Z,87.56
2018-11-12T02:33:01.392Z,87.85
2018-11-12T02:35:30.664Z,88.29
2018-11-12T02:37:59.189Z,89.03
2018-11-12T02:40:27.734Z,89.96
2018-11-12T02:42:56.489Z,90.20
2018-11-12T02:45:25.041Z,90.73
2018-11-12T02:47:53.602Z,90.99
2018-11-12T02:50:22.181Z,92.80
2018-11-12T02:52:50.836Z,93.68
2018-11-12T02:55:19.432Z,95.12
2018-11-12T02:57:48.527Z,96.48
2018-11-12T03:00:19.374Z,97.37
2018-11-12T03:02:54.690Z,97.49
2018-11-12T03:05:23.381Z,98.47
2018-11-12T03:07:51.999Z,98.31
2018-11-12T03:10:23.716Z,99.13
2018-11-12T03:12:55.352Z,99.33
2018-11-12T03:15:23.935Z,99.34
2018-11-12T03:17:52.805Z,99.51
2018-11-12T03:20:22.541Z,99.74
2018-11-12T03:22:51.104Z,100.00
2018-11-12T03:25:20.766Z,100.00
2018-11-12T03:27:49.846Z,100.00
2018-11-12T03:30:19.660Z,100.00
2018-11-12T03:32:48.874Z,100.00
2018-11-12T03:35:17.603Z,100.00
2018-11-12T03:37:47.298Z,99.52
2018-11-12T03:40:17.931Z,99.73
2018-11-12T03:42:46.957Z,98.58
2018-11-12T03:45:16.771Z,98.25
2018-11-12T03:47:45.427Z,97.81
2018-11-12T03:50:15.562Z,97.63
2018-11-12T03:52:44.434Z,97.01
2018-11-12T03:55:14.046Z,96.75
2018-11-12T03:57:42.738Z,96.21
2018-11-12T04:00:15.337Z,95.97
2018-11-12T04:02:44.051Z,96.06
2018-11-12T04:05:12.566Z,96.02
2018-11-12T04:07:41.604Z,95.44
2018-11-12T04:10:12.216Z,95.52
2018-11-12T04:12:40.769Z,96.01
2018-11-12T04:15:12.794Z,95.65
2018-11-12T04:17:41.396Z,95.84
2018-11-12T04:20:11.664Z,95.68
2018-11-12T04:22:41.099Z,95.46
2018-11-12T04:25:10.956Z,95.70
2018-11-12T04:27:39.483Z,95.47
2018-11-12T04:30:11.411Z,95.72
2018-11-12T04:32:40.193Z,95.62
2018-11-12T04:35:09.317Z,95.62
2018-11-12T04:37:37.912Z,95.97
2018-11-12T04:40:08.066Z,95.68
2018-11-12T04:42:36.675Z,95.58
2018-11-12T04:45:05.639Z,95.91
2018-11-12T04:47:34.183Z,95.38
2018-11-12T04:50:02.662Z,95.83
2018-11-12T04:52:31.213Z,95.67
2018-11-12T04:54:59.740Z,95.65
2018-11-12T04:57:28.247Z,95.26
2018-11-12T04:59:56.726Z,95.27
2018-11-12T05:02:27.766Z,95.46
2018-11-12T05:04:56.248Z,95.52
2018-11-12T05:07:25.624Z,95.31
2018-11-12T05:09:54.105Z,94.90
2018-11-12T05:12:22.636Z,95.16
2018-11-12T05:14:51.118Z,94.75
2018-11-12T05:17:19.601Z,94.99
2018-11-12T05:19:48.077Z,95.33
2018-11-12T05:22:16.594Z,95.01
2018-11-12T05:24:45.101Z,95.36
2018-11-12T05:27:13.597Z,95.49
2018-11-12T05:29:42.074Z,95.21
2018-11-12T05:32:10.614Z,95.72
2018-11-12T05:34:39.074Z,95.75
2018-11-12T05:37:07.703Z,95.50
2018-11-12T05:39:36.201Z,95.33
2018-11-12T05:42:05.035Z,95.67
2018-11-12T05:44:33.579Z,95.76
2018-11-12T05:47:02.082Z,95.52
2018-11-12T05:49:30.580Z,95.70
2018-11-12T05:51:59.082Z,95.93
2018-11-12T05:54:27.632Z,95.89
2018-11-12T05:56:56.126Z,95.73
2018-11-12T05:59:24.674Z,95.62
2018-11-12T06:01:53.184Z,95.69
2018-11-12T06:04:21.701Z,95.31
2018-11-12T06:06:50.194Z,95.78
2018-11-12T06:09:18.734Z,95.58
2018-11-12T06:11:47.213Z,95.34
2018-11-12T06:14:15.774Z,95.24
2018-11-12T06:16:44.275Z,95.58
2018-11-12T06:19:12.773Z,95.95
2018-11-12T06:21:41.245Z,95.78
2018-11-12T06:24:09.742Z,95.63
2018-11-12T06:26:38.218Z,95.29
2018-11-12T06:29:06.841Z,95.67
2018-11-12T06:31:35.362Z,95.33
2018-11-12T06:34:03.888Z,95.39
2018-11-12T06:36:32.442Z,95.50
2018-11-12T06:39:00.897Z,95.18
2018-11-12T06:41:29.379Z,95.54
2018-11-12T06:43:57.907Z,95.31
2018-11-12T06:46:26.427Z,94.93
2018-11-12T06:48:54.949Z,94.99
2018-11-12T06:51:23.443Z,95.31
2018-11-12T06:53:51.947Z,95.55
2018-11-12T06:56:20.422Z,95.56
2018-11-12T06:58:49.021Z,95.02
2018-11-12T07:01:18.533Z,94.98
2018-11-12T07:03:47.110Z,94.89
2018-11-12T07:06:15.728Z,94.69
2018-11-12T07:08:44.285Z,94.93
2018-11-12T07:11:12.792Z,95.07
2018-11-12T07:13:41.327Z,95.11
2018-11-12T07:16:10.174Z,95.02
2018-11-12T07:18:39.124Z,94.80
2018-11-12T07:21:07.804Z,95.03
2018-11-12T07:23:36.538Z,94.60
2018-11-12T07:26:06.050Z,94.98
2018-11-12T07:28:34.550Z,95.22
2018-11-12T07:31:03.175Z,95.07
2018-11-12T07:33:31.633Z,95.32
2018-11-12T07:36:00.198Z,95.27
2018-11-12T07:38:28.708Z,94.83
2018-11-12T07:40:57.260Z,95.15
2018-11-12T07:43:26.684Z,94.90
2018-11-12T07:45:55.552Z,94.86
2018-11-12T07:48:24.070Z,95.29
2018-11-12T07:50:52.634Z,95.09
2018-11-12T07:53:21.192Z,94.75
2018-11-12T07:55:53.962Z,94.79
2018-11-12T07:58:22.482Z,94.84
2018-11-12T08:00:51.254Z,94.80
2018-11-12T08:03:19.817Z,94.90
2018-11-12T08:05:48.705Z,94.66
2018-11-12T08:08:17.708Z,94.35
2018-11-12T08:10:46.241Z,94.35
2018-11-12T08:13:14.809Z,94.09
2018-11-12T08:15:43.441Z,94.24
2018-11-12T08:18:11.973Z,94.31
2018-11-12T08:20:40.526Z,94.28
2018-11-12T08:23:09.063Z,93.70
2018-11-12T08:25:37.644Z,93.57
2018-11-12T08:28:06.195Z,93.99
2018-11-12T08:30:34.827Z,93.82
2018-11-12T08:33:03.396Z,93.81
2018-11-12T08:35:32.006Z,93.81
2018-11-12T08:38:00.763Z,94.28
2018-11-12T08:40:30.606Z,94.03
2018-11-12T08:42:59.091Z,94.56
2018-11-12T08:45:27.648Z,94.71
2018-11-12T08:47:56.838Z,94.50
2018-11-12T08:50:26.545Z,94.09
2018-11-12T08:52:55.826Z,94.86
2018-11-12T08:55:25.683Z,94.59
2018-11-12T08:57:58.947Z,94.85
2018-11-12T09:00:27.462Z,95.01
2018-11-12T09:02:56.108Z,95.21
2018-11-12T09:05:25.830Z,95.48
2018-11-12T09:07:57.682Z,95.11
2018-11-12T09:10:28.977Z,94.96
2018-11-12T09:12:57.510Z,95.03
2018-11-12T09:15:26.271Z,94.84
2018-11-12T09:17:54.714Z,94.42
2018-11-12T09:20:24.610Z,94.31
2018-11-12T09:22:53.331Z,94.82
2018-11-12T09:25:23.061Z,94.77
2018-11-12T09:27:51.747Z,94.87
2018-11-12T09:30:21.493Z,94.53
2018-11-12T09:32:50.151Z,94.38
2018-11-12T09:35:23.436Z,94.53
2018-11-12T09:39:28.129Z,95.50
2018-11-12T09:41:57.055Z,95.64
2018-11-12T09:44:25.597Z,95.95
2018-11-12T09:46:54.147Z,94.82
2018-11-12T09:49:22.668Z,95.05
2018-11-12T09:51:51.217Z,94.65
2018-11-12T09:54:19.881Z,94.05
2018-11-12T09:56:48.335Z,93.52
2018-11-12T09:59:16.885Z,92.77
2018-11-12T10:01:46.086Z,93.07
2018-11-12T10:04:15.180Z,93.78
2018-11-12T10:06:44.285Z,94.36
2018-11-12T10:09:16.035Z,95.11
2018-11-12T10:11:43.552Z,95.43
2018-11-12T10:14:12.867Z,96.15
2018-11-12T10:16:42.467Z,96.07
2018-11-12T10:19:08.380Z,95.73
2018-11-12T10:21:36.873Z,95.67
2018-11-12T10:24:05.602Z,95.96
2018-11-12T10:26:34.145Z,96.12
2018-11-12T10:29:02.652Z,96.15
2018-11-12T10:31:31.175Z,96.20
2018-11-12T10:33:59.696Z,96.26
2018-11-12T10:36:28.233Z,95.91
2018-11-12T10:38:56.709Z,95.35
2018-11-12T10:41:25.301Z,95.38
2018-11-12T10:43:53.843Z,94.92
2018-11-12T10:46:22.322Z,94.91
2018-11-12T10:48:50.830Z,95.36
2018-11-12T10:51:19.472Z,95.66
2018-11-12T10:53:50.211Z,94.28
2018-11-12T10:56:16.492Z,94.42
2018-11-12T10:58:45.035Z,94.63
2018-11-12T11:01:20.239Z,94.42
2018-11-12T11:03:53.641Z,94.83
2018-11-12T11:06:22.174Z,94.36
2018-11-12T11:08:50.720Z,94.66
2018-11-12T11:11:19.209Z,94.37
2018-11-12T11:13:47.749Z,94.47
2018-11-12T11:16:16.227Z,94.46
2018-11-12T11:18:44.729Z,94.37
2018-11-12T11:21:13.284Z,93.04
2018-11-12T11:23:41.756Z,92.48
2018-11-12T11:26:10.233Z,90.57
2018-11-12T11:28:38.754Z,90.89
2018-11-12T11:31:07.241Z,91.36
2018-11-12T11:33:35.758Z,92.07
2018-11-12T11:36:04.258Z,91.36
2018-11-12T11:38:32.785Z,90.13
2018-11-12T11:41:01.253Z,90.43
2018-11-12T11:43:29.767Z,90.23
2018-11-12T11:45:58.228Z,91.63
2018-11-12T11:48:26.741Z,91.01
2018-11-12T11:50:55.694Z,91.01
2018-11-12T11:53:24.247Z,90.74
2018-11-12T11:55:52.789Z,91.43
2018-11-12T11:58:21.326Z,89.79
2018-11-12T12:00:49.812Z,90.39
2018-11-12T12:03:19.414Z,90.46
2018-11-12T12:05:47.918Z,90.49
2018-11-12T12:08:16.449Z,90.82
2018-11-12T12:10:44.933Z,90.67
2018-11-12T12:13:13.502Z,90.05
2018-11-12T12:15:42.043Z,90.54
2018-11-12T12:18:10.583Z,89.89
2018-11-12T12:20:39.069Z,89.26
2018-11-12T12:23:07.590Z,89.94
2018-11-12T12:25:36.243Z,90.57
2018-11-12T12:28:04.905Z,91.55
2018-11-12T12:30:33.422Z,91.26
2018-11-12T12:33:01.904Z,90.14
2018-11-12T12:35:30.465Z,89.71
2018-11-12T12:37:58.928Z,88.43
2018-11-12T12:40:27.456Z,87.41
2018-11-12T12:42:55.972Z,87.10
2018-11-12T12:45:26.616Z,87.87
2018-11-12T12:47:55.890Z,88.62
2018-11-12T12:50:24.457Z,89.17
2018-11-12T12:52:52.953Z,88.44
2018-11-12T12:55:21.576Z,87.87
2018-11-12T12:57:50.167Z,87.32
2018-11-12T13:00:21.386Z,86.90
2018-11-12T13:02:49.969Z,87.49
2018-11-12T13:05:18.729Z,86.79
2018-11-12T13:07:47.270Z,86.14
2018-11-12T13:10:17.089Z,86.05
2018-11-12T13:12:45.710Z,86.55
2018-11-12T13:15:15.449Z,86.22
2018-11-12T13:17:44.599Z,85.89
2018-11-12T13:20:15.738Z,85.71
2018-11-12T13:22:44.778Z,86.20
2018-11-12T13:25:13.450Z,85.61
2018-11-12T13:27:42.537Z,85.86
2018-11-12T13:30:13.513Z,85.98
2018-11-12T13:32:42.692Z,88.41
2018-11-12T13:35:12.729Z,88.57
2018-11-12T13:37:41.266Z,89.89
2018-11-12T13:40:13.891Z,89.31
2018-11-12T13:42:43.666Z,90.84
2018-11-12T13:45:12.182Z,91.34
2018-11-12T13:47:40.736Z,91.65
2018-11-12T13:50:12.179Z,91.47
2018-11-12T13:52:40.793Z,91.48
2018-11-12T13:55:11.006Z,90.46
2018-11-12T13:57:39.509Z,89.68
2018-11-12T14:00:10.353Z,88.65
2018-11-12T14:02:38.853Z,88.09
2018-11-12T14:05:09.137Z,88.18
2018-11-12T14:07:37.621Z,87.78
2018-11-12T14:10:07.577Z,88.84
2018-11-12T14:12:36.091Z,89.69
2018-11-12T14:15:04.704Z,90.45
2018-11-12T14:17:33.194Z,91.09
2018-11-12T14:20:01.745Z,90.39
2018-11-12T14:22:30.212Z,90.29
2018-11-12T14:24:58.768Z,90.32
2018-11-12T14:27:27.246Z,90.17
2018-11-12T14:29:55.789Z,89.58
2018-11-12T14:32:24.311Z,89.40
2018-11-12T14:34:52.795Z,88.63
2018-11-12T14:37:21.308Z,88.90
2018-11-12T14:39:50.309Z,89.33
2018-11-12T14:42:18.865Z,89.05
2018-11-12T14:44:47.367Z,88.80
2018-11-12T14:47:15.883Z,88.66
2018-11-12T14:49:44.398Z,88.50
2018-11-12T14:52:12.925Z,88.28
2018-11-12T14:54:41.422Z,88.39
2018-11-12T14:57:09.957Z,88.62
2018-11-12T14:59:38.482Z,90.07
2018-11-12T15:02:07.050Z,89.82
2018-11-12T15:04:35.550Z,89.59
2018-11-12T15:07:04.106Z,89.50
2018-11-12T15:09:32.601Z,89.45
2018-11-12T15:12:01.124Z,88.73
2018-11-12T15:14:29.631Z,88.46
2018-11-12T15:16:58.145Z,88.59
2018-11-12T15:19:31.560Z,88.45
2018-11-12T15:22:00.569Z,88.44
2018-11-12T15:24:29.110Z,88.29
2018-11-12T15:26:57.718Z,88.25
2018-11-12T15:29:26.293Z,88.08
2018-11-12T15:31:55.012Z,88.04
2018-11-12T15:34:23.542Z,88.32
2018-11-12T15:36:52.168Z,88.19
2018-11-12T15:39:20.610Z,88.40
2018-11-12T15:41:49.151Z,88.56
2018-11-12T15:44:17.649Z,88.27
2018-11-12T15:46:46.193Z,88.64
2018-11-12T15:49:15.369Z,88.38
2018-11-12T15:51:43.881Z,88.58
2018-11-12T15:54:12.355Z,88.34
2018-11-12T15:56:41.037Z,88.06
2018-11-12T15:59:09.578Z,88.32
2018-11-12T16:01:38.078Z,88.16
2018-11-12T16:04:06.611Z,88.14
2018-11-12T16:06:35.289Z,88.22
2018-11-12T16:09:05.302Z,87.96
2018-11-12T16:11:37.783Z,88.35
2018-11-12T16:14:07.399Z,88.11
2018-11-12T16:16:36.006Z,88.03
2018-11-12T16:19:06.408Z,88.25
2018-11-12T16:21:35.014Z,88.08
2018-11-12T16:24:03.596Z,87.99
2018-11-12T16:26:32.222Z,88.18
2018-11-12T16:29:00.773Z,87.82
2018-11-12T16:31:29.409Z,87.68
2018-11-12T16:33:57.898Z,88.03
2018-11-12T16:36:26.544Z,87.62
2018-11-12T16:38:55.953Z,87.43
2018-11-12T16:41:24.455Z,87.54
2018-11-12T16:43:53.023Z,87.72
2018-11-12T16:46:23.365Z,87.80
2018-11-12T16:48:51.905Z,87.90
2018-11-12T16:51:20.442Z,88.05
2018-11-12T16:53:48.935Z,87.62
2018-11-12T16:56:17.520Z,87.96
2018-11-12T16:58:47.103Z,88.00
2018-11-12T17:01:15.622Z,88.11
2018-11-12T17:03:44.079Z,88.33
2018-11-12T17:06:12.603Z,87.99
2018-11-12T17:08:41.101Z,88.37
2018-11-12T17:11:09.629Z,88.49
2018-11-12T17:13:38.127Z,88.55
2018-11-12T17:16:06.714Z,88.41
2018-11-12T17:18:35.185Z,88.32
2018-11-12T17:21:03.675Z,88.14
2018-11-12T17:23:32.165Z,88.19
2018-11-12T17:26:00.682Z,88.28
2018-11-12T17:28:29.155Z,88.80
2018-11-12T17:30:57.656Z,88.57
2018-11-12T17:33:26.189Z,89.04
2018-11-12T17:35:54.669Z,88.64
2018-11-12T17:38:23.188Z,88.68
2018-11-12T17:40:51.669Z,89.19
2018-11-12T17:43:20.193Z,88.61
2018-11-12T17:45:48.668Z,88.91
2018-11-12T17:48:17.170Z,88.86
2018-11-12T17:50:45.627Z,89.13
2018-11-12T17:53:14.222Z,89.32
2018-11-12T17:55:42.665Z,90.02
2018-11-12T17:58:11.190Z,89.92
2018-11-12T18:00:39.653Z,89.92
2018-11-12T18:03:08.137Z,90.43
2018-11-12T18:05:36.633Z,90.86
2018-11-12T18:08:05.288Z,91.15
2018-11-12T18:10:33.713Z,91.30
2018-11-12T18:13:02.231Z,91.32
2018-11-12T18:15:30.721Z,91.05
2018-11-12T18:17:59.226Z,91.49
2018-11-12T18:20:28.408Z,91.52
2018-11-12T18:22:57.543Z,91.85
2018-11-12T18:25:26.581Z,91.71
2018-11-12T18:27:55.707Z,91.39
2018-11-12T18:30:29.847Z,91.21
2018-11-12T18:32:58.817Z,91.95
2018-11-12T18:35:27.281Z,91.78
2018-11-12T18:37:56.139Z,91.38
2018-11-12T18:40:25.969Z,91.70
2018-11-12T18:42:54.463Z,91.64
2018-11-12T18:45:24.274Z,91.40
2018-11-12T18:47:52.908Z,91.82
2018-11-12T18:50:25.762Z,92.07
2018-11-12T18:52:54.313Z,92.15
2018-11-12T18:55:22.808Z,92.31
2018-11-12T18:57:51.734Z,91.71
2018-11-12T19:00:23.250Z,91.53
2018-11-12T19:02:52.078Z,92.49
2018-11-12T19:05:23.955Z,92.24
2018-11-12T19:07:53.374Z,91.69
2018-11-12T19:10:24.230Z,91.58
2018-11-12T19:12:53.059Z,91.82
2018-11-12T19:15:23.993Z,91.60
2018-11-12T19:18:00.375Z,92.21
2018-11-12T19:20:29.993Z,93.82
2018-11-12T19:22:58.525Z,94.52
2018-11-12T19:25:27.970Z,94.65
2018-11-12T19:27:56.576Z,95.18
2018-11-12T19:30:26.351Z,95.42
2018-11-12T19:32:54.922Z,95.08
2018-11-12T19:35:24.999Z,95.54
2018-11-12T19:37:53.517Z,95.80
2018-11-12T19:40:24.650Z,95.58
2018-11-12T19:42:54.317Z,96.33
2018-11-12T19:45:23.530Z,96.91
2018-11-12T19:47:52.440Z,97.10
2018-11-12T19:50:22.255Z,96.87
2018-11-12T19:52:51.980Z,96.58
2018-11-12T19:55:20.482Z,96.21
2018-11-12T19:57:49.101Z,96.16
2018-11-12T20:00:19.502Z,96.66
2018-11-12T20:02:49.347Z,96.50
2018-11-12T20:05:18.108Z,97.47
2018-11-12T20:07:46.914Z,97.53
2018-11-12T20:10:17.061Z,97.68
2018-11-12T20:12:45.595Z,97.48
2018-11-12T20:15:15.472Z,97.09
2018-11-12T20:17:44.925Z,96.58
2018-11-12T20:20:16.831Z,96.45
2018-11-12T20:22:46.104Z,96.66
2018-11-12T20:25:15.851Z,96.48
2018-11-12T20:27:44.686Z,96.64
2018-11-12T20:30:16.054Z,96.65
2018-11-12T20:32:44.848Z,97.13
2018-11-12T20:35:13.375Z,97.19
2018-11-12T20:37:41.918Z,97.10
2018-11-12T20:40:11.541Z,97.83
2018-11-12T20:42:40.241Z,97.75
2018-11-12T20:45:10.343Z,97.66
2018-11-12T20:47:39.371Z,97.71
2018-11-12T20:50:08.846Z,98.56
2018-11-12T20:52:37.436Z,98.53
2018-11-12T20:55:06.878Z,98.54
2018-11-12T20:57:35.796Z,98.64
2018-11-12T21:00:04.795Z,98.90
2018-11-12T21:02:33.377Z,99.09
2018-11-12T21:05:01.855Z,98.80
2018-11-12T21:07:30.421Z,98.80
2018-11-12T21:09:58.947Z,99.20
2018-11-12T21:12:27.450Z,98.92
2018-11-12T21:14:56.010Z,99.33
2018-11-12T21:17:24.605Z,99.18
2018-11-12T21:19:53.198Z,99.32
2018-11-12T21:22:21.746Z,99.31
2018-11-12T21:24:50.303Z,99.51
2018-11-12T21:27:18.797Z,99.77
2018-11-12T21:29:47.315Z,99.84
2018-11-12T21:32:15.829Z,99.77
2018-11-12T21:34:44.378Z,100.00
2018-11-12T21:37:13.005Z,99.69
2018-11-12T21:39:41.519Z,100.00
2018-11-12T21:42:10.043Z,99.87
2018-11-12T21:44:38.590Z,99.95
2018-11-12T21:47:07.110Z,100.00
2018-11-12T21:49:35.702Z,100.00
2018-11-12T21:52:04.218Z,100.00
2018-11-12T21:54:32.809Z,100.00
2018-11-12T21:57:01.321Z,100.00
2018-11-12T21:59:30.176Z,100.00
2018-11-12T22:01:58.666Z,100.00
2018-11-12T22:04:27.229Z,100.00
2018-11-12T22:06:55.755Z,100.00
2018-11-12T22:09:24.667Z,100.00
2018-11-12T22:11:53.192Z,100.00
2018-11-12T22:14:21.767Z,100.00
2018-11-12T22:16:50.319Z,100.00
2018-11-12T22:19:18.929Z,100.00
2018-11-12T22:21:47.383Z,100.00
2018-11-12T22:24:15.922Z,100.00
2018-11-12T22:26:44.502Z,100.00
2018-11-12T22:29:13.267Z,100.00
2018-11-12T22:31:41.789Z,100.00
2018-11-12T22:34:10.605Z,100.00
2018-11-12T22:36:39.162Z,100.00
2018-11-12T22:39:09.123Z,100.00
2018-11-12T22:41:37.625Z,100.00
2018-11-12T22:44:06.186Z,100.00
2018-11-12T22:46:35.154Z,100.00
2018-11-12T22:49:03.710Z,100.00
2018-11-12T22:51:32.654Z,100.00
2018-11-12T22:54:01.430Z,100.00
2018-11-12T22:56:29.818Z,100.00
2018-11-12T22:58:58.369Z,100.00
2018-11-12T23:01:27.256Z,100.00
2018-11-12T23:03:55.770Z,100.00
2018-11-12T23:06:24.333Z,100.00
2018-11-12T23:08:52.900Z,100.00
2018-11-12T23:11:21.413Z,100.00
2018-11-12T23:13:52.996Z,100.00
2018-11-12T23:16:21.499Z,100.00
2018-11-12T23:18:50.078Z,100.00
2018-11-12T23:21:18.958Z,100.00
2018-11-12T23:23:47.451Z,100.00
2018-11-12T23:26:16.022Z,100.00
2018-11-12T23:28:44.545Z,100.00
2018-11-12T23:31:13.066Z,100.00
2018-11-12T23:33:41.546Z,100.00
2018-11-12T23:36:10.111Z,100.00
2018-11-12T23:38:38.647Z,100.00
2018-11-12T23:41:07.234Z,100.00
2018-11-12T23:43:35.747Z,100.00
2018-11-12T23:46:04.300Z,100.00
2018-11-12T23:48:32.810Z,100.00
2018-11-12T23:51:01.384Z,100.00
2018-11-12T23:53:29.934Z,100.00
2018-11-12T23:55:58.469Z,100.00
2018-11-12T23:58:26.954Z,100.00
